Time;durP1;ratioP1;P1;durP2;ratioP2;P2;SDS_P1;SDS_P2;PMS_P1;PMS_P2;Temp;Humidity;BMP_temperature;BMP_pressure;BME280_temperature;BME280_humidity;BME280_pressure;Samples;Min_cycle;Max_cycle;Signal;HPM_P1;HPM_P2
2022/12/15 00:41:00;;;;;;;17.77;7.90;;;-5.10;99.90;;;;;;5070564;28;20102;-67
2022/12/15 00:43:27;;;;;;;18.73;8.00;;;-5.10;99.90;;;;;;5069957;28;20040;-67
2022/12/15 00:48:38;;;;;;;21.23;8.48;;;-5.20;99.90;;;;;;5070989;28;20059;-67
2022/12/15 00:51:07;;;;;;;22.15;8.25;;;-5.00;99.90;;;;;;5076810;28;20895;-68
2022/12/15 01:21:01;;;;;;;24.65;8.45;;;-5.10;99.90;;;;;;5089720;28;20070;-67
2022/12/15 01:23:27;;;;;;;19.42;7.82;;;-5.10;99.90;;;;;;5089917;28;20070;-67
2022/12/15 01:25:53;;;;;;;;;;;-5.10;99.90;;;;;;5090621;28;20075;-67
2022/12/15 01:28:20;;;;;;;19.77;7.03;;;-5.10;99.90;;;;;;5054943;28;19920;-67
2022/12/15 01:30:46;;;;;;;22.27;8.27;;;-5.20;99.90;;;;;;5072780;28;20048;-67
2022/12/15 01:33:12;;;;;;;19.25;8.07;;;-5.20;99.90;;;;;;5089631;28;20051;-68
2022/12/15 01:35:38;;;;;;;23.67;8.82;;;-5.20;99.90;;;;;;5090491;28;20075;-67
2022/12/15 01:38:04;;;;;;;24.30;7.47;;;-5.20;99.90;;;;;;5089634;28;20482;-67
2022/12/15 01:40:45;;;;;;;;;;;-5.20;99.90;;;;;;5079575;28;20059;-67
2022/12/15 01:43:16;;;;;;;23.73;8.15;;;-5.20;99.90;;;;;;5073976;28;19943;-68
2022/12/15 01:45:50;;;;;;;19.42;8.70;;;-5.30;99.90;;;;;;5090478;28;20052;-68
2022/12/15 01:48:41;;;;;;;22.75;8.20;;;-5.30;99.90;;;;;;5071790;28;20062;-67
2022/12/15 01:51:23;;;;;;;20.52;7.13;;;-5.30;99.90;;;;;;5089806;28;20515;-67
2022/12/15 01:54:01;;;;;;;19.25;7.50;;;-5.40;99.90;;;;;;5090509;28;20052;-67
2022/12/15 01:56:30;;;;;;;16.98;6.85;;;-5.50;99.90;;;;;;5089355;28;20050;-67
2022/12/15 01:59:00;;;;;;;25.33;8.68;;;-5.50;99.90;;;;;;5089413;28;20489;-67
2022/12/15 02:01:27;;;;;;;21.92;8.75;;;-5.50;99.90;;;;;;5088868;28;20048;-67
2022/12/15 02:03:52;;;;;;;;;;;-5.50;99.90;;;;;;5090225;28;20130;-67
2022/12/15 02:06:20;;;;;;;19.33;8.13;;;-5.40;99.90;;;;;;5090601;28;20007;-66
2022/12/15 02:08:49;;;;;;;16.13;8.23;;;-5.40;99.90;;;;;;5053800;28;20041;-66
2022/12/15 02:11:15;;;;;;;16.50;7.55;;;-5.40;99.90;;;;;;5052946;28;20045;-68
2022/12/15 02:14:00;;;;;;;18.70;7.45;;;-5.40;99.90;;;;;;5053365;28;20055;-67
2022/12/15 02:16:37;;;;;;;17.88;7.82;;;-5.40;99.90;;;;;;5052572;28;20049;-67
2022/12/15 02:19:12;;;;;;;18.95;6.68;;;-5.40;99.90;;;;;;5053784;28;20055;-67
2022/12/15 02:21:47;;;;;;;18.88;8.05;;;-5.40;99.90;;;;;;5051428;28;20053;-67
2022/12/15 02:24:28;;;;;;;19.25;8.45;;;-5.40;99.90;;;;;;5051748;28;20118;-67
2022/12/15 02:27:05;;;;;;;24.23;8.50;;;-5.40;99.90;;;;;;5068553;28;20052;-67
2022/12/15 02:29:34;;;;;;;19.98;7.75;;;-5.50;99.90;;;;;;5052552;28;20053;-67
2022/12/15 02:32:08;;;;;;;17.27;8.07;;;-5.50;99.90;;;;;;5052708;28;20070;-67
2022/12/15 02:34:48;;;;;;;19.05;7.38;;;-5.50;99.90;;;;;;5052813;28;20045;-67
2022/12/15 02:37:24;;;;;;;19.27;7.85;;;-5.40;99.90;;;;;;5052866;28;20079;-67
2022/12/15 02:39:49;;;;;;;19.50;8.45;;;-5.30;99.90;;;;;;5052801;28;20049;-67
2022/12/15 02:42:15;;;;;;;21.48;8.43;;;-5.30;99.90;;;;;;5052061;28;20056;-68
2022/12/15 02:45:08;;;;;;;19.75;7.68;;;-5.20;99.90;;;;;;5052648;28;20191;-67
2022/12/15 02:47:53;;;;;;;19.70;8.13;;;-5.10;99.90;;;;;;5051531;28;20057;-67
2022/12/15 02:50:54;;;;;;;18.75;7.60;;;-5.10;99.90;;;;;;5052669;28;20049;-67
2022/12/15 02:53:50;;;;;;;19.70;8.73;;;-5.10;99.90;;;;;;5052227;28;20045;-67
2022/12/15 02:56:22;;;;;;;19.10;7.80;;;-5.20;99.90;;;;;;5051054;28;20533;-68
2022/12/15 02:58:56;;;;;;;22.48;8.55;;;-5.20;99.90;;;;;;5052405;28;20047;-67
2022/12/15 03:01:48;;;;;;;17.45;8.15;;;-5.20;99.90;;;;;;5051709;28;20566;-67
2022/12/15 03:04:15;;;;;;;16.25;6.93;;;-5.20;99.90;;;;;;5052781;28;20056;-67
2022/12/15 03:06:41;;;;;;;16.27;7.97;;;-5.20;99.90;;;;;;5056089;28;20063;-67
2022/12/15 03:09:07;;;;;;;;;;;-5.20;99.90;;;;;;5085033;28;20048;-67
2022/12/15 03:11:34;;;;;;;15.15;6.85;;;-5.20;99.90;;;;;;5053906;28;19924;-67
2022/12/15 03:14:00;;;;;;;17.98;8.68;;;-5.20;99.90;;;;;;5072200;28;20389;-67
2022/12/15 03:16:26;;;;;;;17.40;7.75;;;-5.30;99.90;;;;;;5070851;28;20083;-67
2022/12/15 03:18:51;;;;;;;;;;;-5.20;99.90;;;;;;5071777;28;20083;-66
2022/12/15 03:21:17;;;;;;;24.77;6.75;;;-5.20;99.90;;;;;;5086880;28;19924;-68
2022/12/15 03:23:42;;;;;;;17.45;8.32;;;-5.20;99.90;;;;;;5071643;28;20084;-66
2022/12/15 03:26:08;;;;;;;22.15;7.60;;;-5.30;99.90;;;;;;5071817;28;20052;-67
2022/12/15 03:28:34;;;;;;;21.02;8.32;;;-5.30;99.90;;;;;;5071258;28;20121;-66
2022/12/15 03:30:59;;;;;;;22.02;7.75;;;-5.30;99.90;;;;;;5071913;28;20091;-67
2022/12/15 03:33:25;;;;;;;19.45;7.75;;;-5.20;99.90;;;;;;5078559;28;20044;-66
2022/12/15 03:35:51;;;;;;;;;;;-5.30;99.90;;;;;;5091727;28;20051;-67
2022/12/15 03:38:17;;;;;;;19.08;7.75;;;-5.20;99.90;;;;;;5090688;28;19920;-67
2022/12/15 03:40:43;;;;;;;14.73;6.47;;;-5.20;99.90;;;;;;5084523;28;20044;-67
2022/12/15 03:43:08;;;;;;;16.98;7.38;;;-5.20;99.90;;;;;;5091725;28;20130;-67
2022/12/15 03:45:34;;;;;;;17.73;7.25;;;-5.20;99.90;;;;;;5092026;28;20043;-66
2022/12/15 03:48:00;;;;;;;15.07;8.23;;;-5.20;99.90;;;;;;5091650;28;20056;-67
2022/12/15 03:50:27;;;;;;;18.40;7.57;;;-5.20;99.90;;;;;;5091662;28;20048;-67
2022/12/15 03:52:56;;;;;;;15.98;8.10;;;-5.20;99.90;;;;;;5091301;28;20054;-66
2022/12/15 03:55:23;;;;;;;16.73;8.38;;;-5.20;99.90;;;;;;5084568;28;20040;-67
2022/12/15 03:57:48;;;;;;;17.38;8.27;;;-5.20;99.90;;;;;;5077955;28;20586;-67
2022/12/15 04:00:15;;;;;;;23.48;7.55;;;-5.20;99.90;;;;;;5092025;28;20079;-66
2022/12/15 04:02:42;;;;;;;17.77;7.97;;;-5.10;99.90;;;;;;5090636;28;20123;-67
2022/12/15 04:05:18;;;;;;;17.48;7.70;;;-5.20;99.90;;;;;;5091776;28;20040;-67
2022/12/15 04:07:44;;;;;;;17.58;6.57;;;-5.20;99.90;;;;;;5090166;28;20515;-67
2022/12/15 04:10:10;;;;;;;;;;;-5.20;99.90;;;;;;5091503;28;20044;-67
2022/12/15 04:12:38;;;;;;;14.30;5.88;;;-5.10;99.90;;;;;;5073047;28;19973;-67
2022/12/15 04:15:05;;;;;;;23.05;6.90;;;-5.20;99.90;;;;;;5091639;28;20048;-67
2022/12/15 04:17:31;;;;;;;16.00;7.00;;;-5.20;99.90;;;;;;5090729;28;20052;-67
2022/12/15 04:20:09;;;;;;;16.77;6.93;;;-5.20;99.90;;;;;;5091539;28;20044;-67
2022/12/15 04:22:40;;;;;;;13.38;5.97;;;-5.00;99.90;;;;;;5090504;28;20044;-67
2022/12/15 05:33:50;;;;;;;18.30;6.22;;;-5.40;99.90;;;;;;5070053;28;20614;-67
2022/12/15 05:36:16;;;;;;;16.42;6.65;;;-5.40;99.90;;;;;;5054438;28;20494;-67
2022/12/15 05:38:41;;;;;;;14.65;6.20;;;-5.40;99.90;;;;;;5090367;28;20118;-67
2022/12/15 05:41:07;;;;;;;23.30;7.18;;;-5.40;99.90;;;;;;5092430;28;20048;-67
2022/12/15 05:43:33;;;;;;;16.13;6.65;;;-5.30;99.90;;;;;;5093819;28;20080;-68
2022/12/15 05:46:05;;;;;;;18.60;7.35;;;-5.40;99.90;;;;;;5076155;28;20451;-67
2022/12/15 05:48:31;;;;;;;15.80;6.20;;;-5.40;99.90;;;;;;5094638;28;20052;-67
2022/12/15 05:50:56;;;;;;;16.73;7.95;;;-5.30;99.90;;;;;;5075219;28;20595;-67
2022/12/15 05:53:22;;;;;;;;;;;-5.30;99.90;;;;;;5094480;28;20127;-66
2022/12/15 05:55:47;;;;;;;15.38;6.32;;;-5.30;99.90;;;;;;5093398;28;19920;-67
2022/12/15 05:58:13;;;;;;;13.60;6.70;;;-5.30;99.90;;;;;;5093705;28;20040;-66
2022/12/15 06:00:39;;;;;;;20.17;6.53;;;-5.30;99.90;;;;;;5093795;28;20040;-67
2022/12/15 06:03:04;;;;;;;17.92;7.75;;;-5.30;99.90;;;;;;5093584;28;20043;-67
2022/12/15 06:05:30;;;;;;;;;;;-5.30;99.90;;;;;;5094478;28;20052;-67
2022/12/15 06:07:56;;;;;;;18.38;6.45;;;-5.30;99.90;;;;;;5091323;28;20802;-67
2022/12/15 06:10:21;;;;;;;;;;;-5.30;99.90;;;;;;5093974;28;20048;-67
2022/12/15 06:12:47;;;;;;;15.98;6.70;;;-5.30;99.90;;;;;;5092996;28;19989;-67
2022/12/15 06:15:13;;;;;;;;;;;-5.40;99.90;;;;;;5094540;28;20559;-67
2022/12/15 06:17:38;;;;;;;15.15;6.25;;;-5.30;99.90;;;;;;5092842;28;20387;-67
2022/12/15 06:20:07;;;;;;;15.85;6.63;;;-5.40;99.90;;;;;;5093780;28;20079;-67
2022/12/15 06:22:33;;;;;;;16.02;7.18;;;-5.40;99.90;;;;;;5093182;28;20540;-67
2022/12/15 06:24:58;;;;;;;;;;;-5.40;99.90;;;;;;5093257;28;20063;-67
2022/12/15 06:27:24;;;;;;;12.90;6.10;;;-5.50;99.90;;;;;;5093818;28;20426;-67
2022/12/15 06:29:50;;;;;;;;;;;-5.50;99.90;;;;;;5093211;28;20046;-67
2022/12/15 06:32:15;;;;;;;17.17;6.93;;;-5.50;99.90;;;;;;5092915;28;19924;-67
2022/12/15 06:34:41;;;;;;;13.90;6.30;;;-5.50;99.90;;;;;;5093339;28;20056;-67
2022/12/15 06:37:07;;;;;;;17.67;7.78;;;-5.50;99.90;;;;;;5074887;28;20044;-67
2022/12/15 06:39:32;;;;;;;15.65;6.90;;;-5.50;99.90;;;;;;5087793;28;20123;-67
2022/12/15 06:41:58;;;;;;;15.05;6.38;;;-5.40;99.90;;;;;;5072674;28;20056;-67
2022/12/15 06:44:23;;;;;;;20.35;6.95;;;-5.40;99.90;;;;;;5081288;28;20052;-67
2022/12/15 06:46:49;;;;;;;14.70;6.18;;;-5.40;99.90;;;;;;5092237;28;20044;-67
2022/12/15 06:49:15;;;;;;;17.98;7.20;;;-5.30;99.90;;;;;;5075446;28;20047;-67
2022/12/15 06:51:41;;;;;;;;;;;-5.30;99.90;;;;;;5073365;28;20517;-68
2022/12/15 06:54:09;;;;;;;16.20;7.05;;;-5.30;99.90;;;;;;5079035;28;19933;-66
2022/12/15 06:56:35;;;;;;;15.95;6.70;;;-5.20;99.90;;;;;;5078600;28;20050;-67
2022/12/15 06:59:03;;;;;;;17.45;6.93;;;-5.20;99.90;;;;;;5087155;28;20048;-68
2022/12/15 07:01:29;;;;;;;18.52;6.75;;;-5.20;99.90;;;;;;5072178;28;20045;-66
2022/12/15 07:03:55;;;;;;;18.63;7.65;;;-5.20;99.90;;;;;;5071974;28;20505;-65
2022/12/15 07:06:21;;;;;;;15.80;7.15;;;-5.20;99.90;;;;;;5071997;28;20047;-66
2022/12/15 07:08:55;;;;;;;14.70;6.07;;;-5.20;99.90;;;;;;5072183;28;20060;-66
2022/12/15 07:11:21;;;;;;;14.68;6.57;;;-5.10;99.90;;;;;;5072239;28;20068;-66
2022/12/15 07:13:51;;;;;;;14.93;7.40;;;-5.20;99.90;;;;;;5073724;28;20401;-67
2022/12/15 07:16:18;;;;;;;18.65;7.10;;;-5.20;99.90;;;;;;5091985;28;20047;-66
2022/12/15 07:18:43;;;;;;;15.35;7.38;;;-5.20;99.90;;;;;;5091922;28;20555;-68
2022/12/15 07:21:09;;;;;;;19.75;7.32;;;-5.20;99.90;;;;;;5086237;28;20088;-66
2022/12/15 07:23:35;;;;;;;;;;;-5.20;99.90;;;;;;5093060;28;20127;-69
2022/12/15 07:26:09;;;;;;;15.35;6.10;;;-5.20;99.90;;;;;;5091529;28;19986;-66
2022/12/15 07:28:35;;;;;;;15.68;7.13;;;-5.20;99.90;;;;;;5091438;28;20139;-67
2022/12/15 07:31:07;;;;;;;18.77;7.20;;;-5.10;99.90;;;;;;5071382;28;20056;-66
2022/12/15 07:33:33;;;;;;;13.05;6.32;;;-5.10;99.90;;;;;;5072285;28;20048;-65
2022/12/15 07:36:00;;;;;;;14.20;6.95;;;-5.00;99.90;;;;;;5070753;28;20616;-67
2022/12/15 07:38:27;;;;;;;18.38;6.57;;;-5.00;99.90;;;;;;5070682;28;20044;-67
2022/12/15 07:40:53;;;;;;;13.63;5.93;;;-5.00;99.90;;;;;;5091364;28;20087;-68
2022/12/15 07:43:20;;;;;;;17.55;6.43;;;-5.00;99.90;;;;;;5091800;28;20156;-67
2022/12/15 07:45:51;;;;;;;16.33;6.95;;;-4.90;99.90;;;;;;5091756;28;20083;-68
2022/12/15 07:48:16;;;;;;;17.48;6.72;;;-4.90;99.90;;;;;;5091803;28;20044;-67
2022/12/15 07:50:42;;;;;;;11.75;5.25;;;-4.80;99.90;;;;;;5077914;28;20040;-69
2022/12/15 07:53:08;;;;;;;15.05;5.53;;;-4.80;99.90;;;;;;5076608;28;20055;-66
2022/12/15 07:55:34;;;;;;;;;;;-4.70;99.90;;;;;;5089080;28;20122;-67
2022/12/15 07:57:59;;;;;;;18.67;6.57;;;-4.60;99.90;;;;;;5079326;28;19946;-66
2022/12/15 08:00:26;;;;;;;16.00;6.93;;;-4.60;99.90;;;;;;5071852;28;20553;-66
2022/12/15 08:02:52;;;;;;;15.10;7.07;;;-4.50;99.90;;;;;;5069945;28;20122;-67
2022/12/15 08:05:18;;;;;;;20.00;7.63;;;-4.40;99.90;;;;;;5090619;28;20489;-67
2022/12/15 08:07:44;;;;;;;14.65;6.85;;;-4.30;99.90;;;;;;5091094;28;20063;-67
2022/12/15 08:10:09;;;;;;;17.15;7.80;;;-4.30;99.90;;;;;;5079944;28;20044;-67
2022/12/15 08:12:35;;;;;;;20.38;6.50;;;-4.20;99.90;;;;;;5071494;28;20508;-66
2022/12/15 08:15:01;;;;;;;17.42;7.10;;;-4.00;99.90;;;;;;5070470;28;20107;-67
2022/12/15 08:17:29;;;;;;;22.83;8.55;;;-4.00;99.90;;;;;;5083000;28;20048;-66
2022/12/15 08:19:55;;;;;;;16.85;6.45;;;-3.80;99.90;;;;;;5073197;28;20481;-67
2022/12/15 08:22:20;;;;;;;19.48;7.47;;;-3.70;99.90;;;;;;5079682;28;20072;-66
2022/12/15 08:24:47;;;;;;;17.58;6.72;;;-3.70;99.90;;;;;;5070424;28;20067;-68
2022/12/15 08:27:13;;;;;;;17.45;7.32;;;-3.60;99.90;;;;;;5081170;28;20040;-67
2022/12/15 08:29:40;;;;;;;18.20;8.55;;;-3.50;99.90;;;;;;5090970;28;20048;-67
2022/12/15 08:32:06;;;;;;;17.77;8.10;;;-3.50;99.90;;;;;;5087754;28;20899;-66
2022/12/15 08:34:32;;;;;;;19.20;7.80;;;-3.40;99.90;;;;;;5078025;28;20459;-67
2022/12/15 08:36:57;;;;;;;17.50;8.38;;;-3.40;99.90;;;;;;5075794;28;20086;-67
2022/12/15 08:39:23;;;;;;;16.73;7.95;;;-3.30;99.90;;;;;;5086439;28;20051;-67
2022/12/15 08:41:49;;;;;;;19.00;7.97;;;-3.20;99.90;;;;;;5087652;28;20513;-69
2022/12/15 08:44:15;;;;;;;17.27;7.85;;;-3.20;99.90;;;;;;5090533;28;20048;-68
2022/12/15 08:46:41;;;;;;;17.58;7.50;;;-3.20;99.90;;;;;;5090582;28;20109;-68
2022/12/15 08:49:07;;;;;;;15.57;7.68;;;-3.20;99.90;;;;;;5072314;28;20055;-68
2022/12/15 08:51:33;;;;;;;17.77;6.88;;;-3.20;99.90;;;;;;5090473;28;20051;-68
2022/12/15 08:53:59;;;;;;;18.15;7.65;;;-3.20;99.90;;;;;;5089485;28;20047;-68
2022/12/15 08:56:26;;;;;;;16.15;7.20;;;-3.20;99.90;;;;;;5090520;28;20060;-68
2022/12/15 08:59:00;;;;;;;18.60;7.70;;;-3.20;99.90;;;;;;5074994;28;20079;-68
2022/12/15 09:01:27;;;;;;;14.38;7.28;;;-3.10;99.90;;;;;;5071719;28;20044;-67
2022/12/15 09:03:55;;;;;;;15.73;7.60;;;-3.10;99.90;;;;;;5085148;28;20382;-72
2022/12/15 09:06:29;;;;;;;15.65;7.57;;;-3.00;99.90;;;;;;5088968;28;20182;-72
2022/12/15 09:09:01;;;;;;;17.92;7.25;;;-3.00;99.90;;;;;;5070223;28;20528;-71
2022/12/15 09:11:28;;;;;;;16.58;8.30;;;-2.90;99.90;;;;;;5084691;28;20119;-72
2022/12/15 09:13:54;;;;;;;18.20;6.10;;;-2.90;99.90;;;;;;5085036;28;20249;-72
2022/12/15 09:16:21;;;;;;;17.55;7.00;;;-2.80;99.90;;;;;;5088674;28;20059;-72
2022/12/15 09:18:53;;;;;;;16.08;7.25;;;-2.80;99.90;;;;;;5087904;28;20040;-72
2022/12/15 09:21:25;;;;;;;16.05;7.53;;;-2.80;99.90;;;;;;5088667;28;20122;-72
2022/12/15 09:23:52;;;;;;;16.02;7.35;;;-2.70;99.90;;;;;;5084377;28;20479;-73
2022/12/15 09:26:19;;;;;;;14.65;7.15;;;-2.70;99.90;;;;;;5086056;28;20038;-72
2022/12/15 09:28:45;;;;;;;22.63;8.27;;;-2.60;99.90;;;;;;5088250;28;20040;-72
2022/12/15 09:31:19;;;;;;;16.67;7.57;;;-2.60;99.90;;;;;;5070245;28;20673;-71
2022/12/15 09:33:45;;;;;;;19.02;7.50;;;-2.60;99.90;;;;;;5075103;28;20053;-72
2022/12/15 09:36:12;;;;;;;19.85;7.05;;;-2.50;99.90;;;;;;5069337;28;20110;-72
2022/12/15 09:38:39;;;;;;;16.55;8.77;;;-2.40;99.90;;;;;;5070034;28;20119;-72
2022/12/15 09:41:13;;;;;;;20.02;7.72;;;-2.10;99.90;;;;;;5085177;28;20044;-72
2022/12/15 09:43:50;;;;;;;19.50;7.55;;;-2.20;99.90;;;;;;5064399;28;20053;-72
2022/12/15 09:46:29;;;;;;;;;;;-2.10;99.90;;;;;;5072061;28;20052;-72
2022/12/15 09:48:58;;;;;;;14.52;7.38;;;-2.00;99.90;;;;;;5088145;28;19939;-72
2022/12/15 09:51:45;;;;;;;17.85;7.88;;;-1.90;99.90;;;;;;5074379;28;20778;-70
2022/12/15 09:54:11;;;;;;;19.33;8.48;;;-1.80;99.90;;;;;;5089290;28;20499;-76
2022/12/15 09:56:54;;;;;;;22.33;8.60;;;-1.70;99.90;;;;;;5068347;28;20132;-73
2022/12/15 09:59:55;;;;;;;17.00;7.63;;;-1.70;99.90;;;;;;5083528;28;20038;-72
2022/12/15 10:02:33;;;;;;;16.95;7.35;;;-1.60;99.90;;;;;;5031179;28;20066;-72
2022/12/15 10:05:31;;;;;;;19.17;7.20;;;-1.50;99.90;;;;;;5056565;28;20087;-73
2022/12/15 10:07:58;;;;;;;18.10;7.38;;;-1.40;99.90;;;;;;5068644;28;20547;-72
2022/12/15 10:10:31;;;;;;;18.73;7.07;;;-1.30;99.90;;;;;;5078304;28;20067;-72
2022/12/15 10:13:03;;;;;;;17.00;7.43;;;-1.30;99.90;;;;;;5089202;28;20159;-72
2022/12/15 10:15:39;;;;;;;16.50;7.13;;;-1.20;99.90;;;;;;5090000;28;20452;-72
2022/12/15 10:18:19;;;;;;;17.30;7.63;;;-1.10;99.90;;;;;;5088932;28;20048;-72
2022/12/15 10:20:45;;;;;;;13.70;6.47;;;-1.00;99.90;;;;;;5088649;28;20046;-72
2022/12/15 10:23:16;;;;;;;16.15;8.25;;;-0.90;99.90;;;;;;5078379;28;20052;-72
2022/12/15 10:25:49;;;;;;;12.23;6.75;;;-0.90;99.90;;;;;;5069549;28;20048;-72
2022/12/15 10:28:14;;;;;;;16.58;6.72;;;-0.90;99.90;;;;;;5072061;28;20414;-72
2022/12/15 10:31:06;;;;;;;13.88;6.38;;;-0.90;99.90;;;;;;5084112;28;20063;-72
2022/12/15 10:33:35;;;;;;;12.20;6.43;;;-0.90;99.90;;;;;;5092540;28;20056;-72
2022/12/15 10:36:03;;;;;;;12.32;6.55;;;-0.90;99.90;;;;;;5057328;28;20063;-72
2022/12/15 10:38:39;;;;;;;15.95;7.32;;;-0.90;99.90;;;;;;5082158;28;20087;-72
2022/12/15 10:41:20;;;;;;;24.52;7.10;;;-0.80;99.90;;;;;;5085814;28;20642;-73
2022/12/15 10:43:48;;;;;;;15.57;7.85;;;-0.80;99.90;;;;;;5077535;28;20048;-70
2022/12/15 10:46:22;;;;;;;15.82;7.20;;;-0.80;99.90;;;;;;5083690;28;20044;-72
2022/12/15 10:49:05;;;;;;;15.27;7.32;;;-0.70;99.90;;;;;;5074322;28;20060;-71
2022/12/15 10:51:45;;;;;;;14.73;6.75;;;-0.70;99.90;;;;;;5084231;28;20112;-71
2022/12/15 10:54:13;;;;;;;17.98;7.63;;;-0.70;99.90;;;;;;5087895;28;20055;-72
2022/12/15 10:56:54;;;;;;;15.60;7.00;;;-0.50;99.90;;;;;;5089378;28;20073;-70
2022/12/15 10:59:30;;;;;;;15.02;7.35;;;0.30;99.90;;;;;;5087370;28;20448;-72
2022/12/15 11:02:19;;;;;;;17.60;6.90;;;1.20;99.90;;;;;;5068719;28;20440;-72
2022/12/15 11:05:02;;;;;;;22.23;6.82;;;2.10;99.90;;;;;;5089569;28;20109;-74
2022/12/15 11:07:39;;;;;;;14.48;5.93;;;2.70;99.90;;;;;;5088272;28;20055;-72
2022/12/15 11:10:24;;;;;;;;;;;3.40;99.90;;;;;;5085254;28;20059;-73
2022/12/15 11:13:12;;;;;;;13.88;5.90;;;4.20;99.90;;;;;;5084601;28;19923;-72
2022/12/15 11:15:44;;;;;;;13.40;6.43;;;4.70;99.90;;;;;;5090435;28;20450;-72
2022/12/15 11:18:27;;;;;;;13.63;5.30;;;4.90;99.90;;;;;;5070875;28;20055;-72
2022/12/15 11:20:58;;;;;;;13.55;5.88;;;4.50;99.90;;;;;;5087179;28;20044;-71
2022/12/15 11:23:49;;;;;;;10.98;5.90;;;3.90;99.90;;;;;;5071841;28;20048;-71
2022/12/15 11:26:29;;;;;;;14.20;6.72;;;3.40;99.90;;;;;;5087994;28;20044;-75
2022/12/15 11:29:05;;;;;;;16.63;5.65;;;3.10;99.90;;;;;;5087305;28;20052;-76
2022/12/15 11:31:35;;;;;;;13.45;5.45;;;3.00;99.90;;;;;;5084668;28;20497;-71
2022/12/15 11:34:01;;;;;;;11.10;5.57;;;3.00;99.90;;;;;;5086070;28;20705;-71
2022/12/15 11:36:42;;;;;;;15.73;6.85;;;3.20;99.90;;;;;;5085309;28;20070;-72
2022/12/15 11:39:21;;;;;;;14.07;6.40;;;3.80;99.90;;;;;;5084789;28;20055;-71
2022/12/15 11:41:57;;;;;;;13.32;5.95;;;3.60;99.90;;;;;;5087625;28;20044;-71
2022/12/15 11:44:42;;;;;;;11.40;5.75;;;3.60;99.90;;;;;;5086176;28;20039;-71
2022/12/15 11:47:13;;;;;;;15.27;5.68;;;4.00;99.90;;;;;;5088839;28;20048;-71
2022/12/15 11:50:05;;;;;;;14.32;5.45;;;4.00;99.90;;;;;;5085979;28;20079;-71
2022/12/15 11:52:39;;;;;;;19.98;6.47;;;4.10;99.90;;;;;;5085223;28;20052;-71
2022/12/15 11:55:20;;;;;;;13.27;5.90;;;4.90;99.90;;;;;;5089270;28;20075;-73
2022/12/15 11:58:09;;;;;;;14.77;6.50;;;5.70;99.90;;;;;;5086667;28;20080;-71
2022/12/15 12:00:48;;;;;;;12.82;6.15;;;6.40;99.90;;;;;;5088508;28;20196;-71
2022/12/15 12:03:13;;;;;;;13.63;6.10;;;6.70;99.90;;;;;;5088188;28;20188;-71
2022/12/15 12:05:59;;;;;;;12.85;5.93;;;7.30;99.90;;;;;;5088878;28;20516;-71
2022/12/15 12:08:40;;;;;;;12.00;6.30;;;7.70;99.90;;;;;;5086742;28;20062;-71
2022/12/15 12:11:23;;;;;;;13.07;6.32;;;7.60;99.90;;;;;;5077498;28;20118;-71
2022/12/15 12:14:23;;;;;;;12.82;6.18;;;7.10;99.90;;;;;;5085035;28;20124;-71
2022/12/15 12:17:01;;;;;;;13.10;6.75;;;6.60;99.90;;;;;;5088692;28;20052;-72
2022/12/15 12:19:31;;;;;;;15.68;6.75;;;6.20;99.90;;;;;;5088683;28;20040;-71
2022/12/15 12:22:18;;;;;;;15.82;6.18;;;5.80;99.90;;;;;;5086521;28;20039;-72
2022/12/15 12:24:50;;;;;;;13.18;6.57;;;5.80;99.90;;;;;;5079259;28;20043;-71
2022/12/15 12:27:32;;;;;;;13.68;6.78;;;6.30;99.90;;;;;;5082857;28;20063;-68
2022/12/15 12:30:04;;;;;;;20.17;7.68;;;6.90;99.90;;;;;;5085195;28;20552;-68
2022/12/15 12:32:53;;;;;;;13.52;6.68;;;6.40;99.90;;;;;;5083298;28;20082;-68
2022/12/15 12:35:29;;;;;;;14.20;7.03;;;5.30;99.90;;;;;;5081635;28;20089;-68
2022/12/15 12:38:00;;;;;;;17.27;7.57;;;4.30;99.90;;;;;;5068954;28;20405;-72
2022/12/15 12:40:59;;;;;;;15.00;7.13;;;3.90;99.90;;;;;;5080182;28;20040;-70
2022/12/15 12:43:32;;;;;;;14.45;7.53;;;4.30;99.90;;;;;;5067174;28;21148;-72
2022/12/15 12:46:20;;;;;;;17.63;7.03;;;4.50;99.90;;;;;;5059203;28;20056;-68
2022/12/15 12:49:11;;;;;;;16.60;7.68;;;4.70;99.90;;;;;;5085461;28;20045;-72
2022/12/15 12:51:40;;;;;;;14.93;7.50;;;4.60;99.90;;;;;;5070767;28;20076;-72
2022/12/15 12:54:36;;;;;;;13.30;6.97;;;5.00;99.90;;;;;;5080669;28;20052;-72
2022/12/15 12:57:11;;;;;;;16.23;6.97;;;5.70;99.90;;;;;;5066007;28;20535;-71
2022/12/15 12:59:42;;;;;;;17.20;7.45;;;7.00;99.90;;;;;;5089243;28;20085;-69
2022/12/15 13:02:13;;;;;;;17.08;6.65;;;8.30;99.90;;;;;;5090030;28;20488;-71
2022/12/15 13:04:49;;;;;;;17.95;7.57;;;9.30;99.90;;;;;;5089724;28;20047;-71
2022/12/15 13:07:33;;;;;;;12.98;6.93;;;9.80;99.90;;;;;;5081785;28;20044;-71
2022/12/15 13:10:15;;;;;;;17.20;7.05;;;9.70;99.90;;;;;;5076201;28;20044;-71
2022/12/15 13:12:43;;;;;;;11.57;6.18;;;9.30;97.20;;;;;;5070339;28;20490;-71
2022/12/15 13:15:27;;;;;;;20.25;7.05;;;8.10;99.90;;;;;;5052767;28;20049;-71
2022/12/15 13:18:16;;;;;;;17.52;7.47;;;6.80;99.90;;;;;;5069896;28;20051;-70
2022/12/15 13:20:44;;;;;;;15.32;6.85;;;6.20;99.90;;;;;;5072101;28;20076;-71
2022/12/15 13:23:32;;;;;;;12.63;6.72;;;6.70;99.90;;;;;;5070679;28;20048;-71
2022/12/15 13:25:58;;;;;;;14.48;7.40;;;7.60;99.90;;;;;;5076940;28;20378;-71
2022/12/15 13:28:38;;;;;;;15.77;7.13;;;8.70;99.90;;;;;;5089487;28;20070;-71
2022/12/15 13:31:40;;;;;;;16.45;6.95;;;9.40;99.90;;;;;;5075672;28;20489;-72
2022/12/15 13:34:21;;;;;;;14.77;6.75;;;10.00;95.90;;;;;;5060836;28;20091;-71
2022/12/15 13:36:50;;;;;;;14.55;7.63;;;10.30;98.30;;;;;;5089732;28;20119;-71
2022/12/15 13:39:15;;;;;;;16.98;8.85;;;10.20;97.90;;;;;;5086728;28;20767;-71
2022/12/15 13:41:41;;;;;;;13.50;7.22;;;10.20;97.30;;;;;;5089384;28;20048;-71
2022/12/15 13:44:29;;;;;;;13.90;8.05;;;10.20;96.50;;;;;;5053761;28;20059;-71
2022/12/15 13:47:03;;;;;;;18.38;7.53;;;10.30;93.40;;;;;;5069614;28;20052;-71
2022/12/15 13:49:41;;;;;;;16.45;8.10;;;9.90;95.30;;;;;;5081136;28;20484;-71
2022/12/15 13:52:16;;;;;;;19.15;8.35;;;9.40;96.90;;;;;;5078558;28;20044;-71
2022/12/15 13:54:51;;;;;;;16.00;7.55;;;9.10;95.20;;;;;;5072061;28;20127;-72
2022/12/15 13:57:19;;;;;;;15.50;7.73;;;9.00;96.00;;;;;;5084108;28;20083;-73
2022/12/15 13:59:49;;;;;;;16.02;7.95;;;8.90;96.80;;;;;;5069720;28;20036;-72
2022/12/15 14:02:26;;;;;;;16.30;7.63;;;8.90;97.10;;;;;;5057846;28;20067;-72
2022/12/15 14:05:11;;;;;;;14.27;7.50;;;9.10;95.20;;;;;;5073257;28;20485;-72
2022/12/15 14:07:38;;;;;;;13.85;7.47;;;9.20;92.60;;;;;;5086349;28;20400;-72
2022/12/15 14:10:14;;;;;;;16.33;7.25;;;9.30;94.50;;;;;;5073295;28;20045;-72
2022/12/15 14:12:40;;;;;;;15.95;7.80;;;9.40;94.00;;;;;;5072875;28;20062;-72
2022/12/15 14:15:15;;;;;;;15.63;7.63;;;9.30;93.60;;;;;;5072802;28;20084;-72
2022/12/15 14:17:41;;;;;;;19.42;8.77;;;9.20;91.90;;;;;;5054531;28;20084;-72
2022/12/15 14:20:16;;;;;;;15.30;8.05;;;8.80;93.20;;;;;;5073277;28;20045;-72
2022/12/15 14:22:42;;;;;;;14.65;7.13;;;8.40;94.00;;;;;;5072173;28;20045;-72
2022/12/15 14:25:22;;;;;;;13.85;7.20;;;8.10;95.20;;;;;;5056599;28;20124;-71
2022/12/15 14:27:49;;;;;;;15.75;8.20;;;7.80;95.20;;;;;;5086057;28;20079;-72
2022/12/15 14:30:21;;;;;;;14.40;6.78;;;7.70;96.20;;;;;;5093278;28;20119;-70
2022/12/15 14:32:51;;;;;;;14.52;7.35;;;7.40;96.00;;;;;;5089929;28;20077;-73
2022/12/15 14:35:30;;;;;;;22.40;9.75;;;7.10;96.00;;;;;;5090677;28;20047;-72
2022/12/15 14:37:58;;;;;;;16.23;8.18;;;6.60;96.90;;;;;;5074093;28;20047;-72
2022/12/15 14:40:25;;;;;;;15.77;8.43;;;6.20;98.90;;;;;;5092032;28;20044;-73
2022/12/15 14:42:52;;;;;;;17.92;8.35;;;5.90;99.90;;;;;;5092246;28;20052;-72
2022/12/15 14:45:20;;;;;;;20.50;9.40;;;5.70;99.90;;;;;;5091997;28;20052;-72
2022/12/15 14:47:56;;;;;;;19.92;9.23;;;5.20;99.90;;;;;;5087402;28;20051;-72
2022/12/15 14:50:23;;;;;;;18.73;8.98;;;4.70;99.90;;;;;;5091511;28;20044;-72
2022/12/15 14:53:00;;;;;;;18.95;8.77;;;4.40;99.90;;;;;;5090852;28;20507;-72
2022/12/15 14:55:35;;;;;;;16.55;8.68;;;4.00;99.90;;;;;;5083186;28;20040;-72
2022/12/15 14:58:21;;;;;;;17.75;8.65;;;3.60;99.90;;;;;;5081772;28;20045;-71
2022/12/15 15:00:49;;;;;;;18.83;8.85;;;3.30;99.90;;;;;;5084346;28;20585;-71
2022/12/15 15:03:19;;;;;;;21.33;8.98;;;3.00;99.90;;;;;;5090472;28;20044;-71
2022/12/15 15:05:58;;;;;;;17.65;9.60;;;2.70;99.90;;;;;;5071778;28;20049;-71
2022/12/15 15:08:40;;;;;;;21.33;8.73;;;2.50;99.90;;;;;;5081481;28;20056;-71
2022/12/15 15:11:28;;;;;;;22.98;9.50;;;2.10;99.90;;;;;;5086923;28;20384;-72
2022/12/15 15:14:13;;;;;;;19.25;10.07;;;1.70;99.90;;;;;;5084073;28;20059;-71
2022/12/15 15:16:40;;;;;;;20.80;9.75;;;1.40;99.90;;;;;;5082114;28;20044;-71
2022/12/15 15:19:06;;;;;;;19.33;10.10;;;1.20;99.90;;;;;;5072811;28;20044;-71
2022/12/15 15:21:38;;;;;;;23.80;11.45;;;1.00;99.90;;;;;;5079705;28;20098;-71
2022/12/15 15:24:28;;;;;;;21.98;10.18;;;0.90;99.90;;;;;;5081575;28;20052;-71
2022/12/15 15:26:54;;;;;;;25.00;10.45;;;0.70;99.90;;;;;;5089722;28;20671;-71
2022/12/15 15:29:39;;;;;;;25.75;10.68;;;0.60;99.90;;;;;;5083562;28;20115;-71